createdAt,value
2023-08-17T00:06:31.873Z,5.68
2023-08-17T00:13:51.477Z,5.25
2023-08-17T00:21:09.775Z,6.05
2023-08-17T00:28:27.938Z,6.50
2023-08-17T00:35:47.755Z,5.97
2023-08-17T00:43:07.277Z,6.20
2023-08-17T00:50:25.807Z,5.55
2023-08-17T00:57:46.079Z,4.57
2023-08-17T01:05:04.652Z,4.85
2023-08-17T01:12:28.219Z,4.80
2023-08-17T01:19:52.400Z,5.15
2023-08-17T01:27:12.144Z,5.22
2023-08-17T01:34:32.071Z,5.53
2023-08-17T01:41:50.596Z,5.45
2023-08-17T01:49:10.210Z,4.65
2023-08-17T01:56:29.740Z,5.68
2023-08-17T02:03:47.902Z,4.38
2023-08-17T02:11:07.497Z,3.92
2023-08-17T02:18:26.177Z,3.60
2023-08-17T02:25:44.747Z,3.92
2023-08-17T02:33:04.734Z,3.92
2023-08-17T02:40:23.030Z,3.92
2023-08-17T02:47:41.369Z,4.32
2023-08-17T02:55:00.994Z,4.72
2023-08-17T03:02:19.103Z,4.55
2023-08-17T03:09:37.286Z,4.80
2023-08-17T03:16:57.405Z,3.70
2023-08-17T03:24:15.982Z,4.35
2023-08-17T03:31:34.401Z,3.78
2023-08-17T03:38:55.236Z,4.72
2023-08-17T03:46:13.535Z,4.75
2023-08-17T03:53:31.742Z,4.97
2023-08-17T04:00:55.600Z,5.20
2023-08-17T04:08:20.291Z,5.20
2023-08-17T04:15:38.469Z,5.32
2023-08-17T04:22:59.364Z,5.20
2023-08-17T04:30:18.311Z,5.15
2023-08-17T04:37:44.897Z,5.25
2023-08-17T04:45:05.296Z,6.03
2023-08-17T04:52:24.407Z,5.97
2023-08-17T04:59:43.077Z,6.03
2023-08-17T05:07:03.471Z,7.10
2023-08-17T05:14:22.398Z,4.63
2023-08-17T05:21:40.827Z,5.55
2023-08-17T05:29:04.228Z,4.30
2023-08-17T05:36:22.647Z,4.50
2023-08-17T05:43:40.889Z,3.33
2023-08-17T05:51:00.601Z,2.75
2023-08-17T05:58:18.742Z,2.80
2023-08-17T06:05:36.818Z,2.70
2023-08-17T06:12:56.974Z,3.10
2023-08-17T06:20:15.719Z,3.28
2023-08-17T06:27:34.856Z,3.10
2023-08-17T06:34:55.455Z,3.05
2023-08-17T06:42:13.904Z,3.97
2023-08-17T06:49:32.866Z,3.95
2023-08-17T06:56:52.875Z,3.97
2023-08-17T07:04:11.067Z,5.25
2023-08-17T07:11:29.526Z,3.50
2023-08-17T07:18:49.776Z,3.50
2023-08-17T07:26:08.298Z,2.97
2023-08-17T07:33:26.677Z,2.95
2023-08-17T07:40:46.417Z,3.80
2023-08-17T07:48:05.489Z,3.30
2023-08-17T07:55:24.595Z,3.58
2023-08-17T08:02:44.425Z,4.63
2023-08-17T08:10:02.932Z,3.20
2023-08-17T08:17:21.414Z,3.20
2023-08-17T08:24:43.346Z,2.80
2023-08-17T08:32:04.557Z,2.83
2023-08-17T08:39:22.911Z,3.13
2023-08-17T08:46:43.406Z,2.75
2023-08-17T08:54:05.379Z,2.80
2023-08-17T09:08:44.256Z,2.85
2023-08-17T09:16:07.412Z,2.78
2023-08-17T09:23:26.074Z,4.57
2023-08-17T09:30:59.624Z,2.80
2023-08-17T09:38:17.846Z,2.95
2023-08-17T09:45:37.879Z,3.15
2023-08-17T09:52:57.765Z,2.80
2023-08-17T10:00:16.821Z,3.28
2023-08-17T10:07:36.501Z,3.53
2023-08-17T10:14:58.280Z,3.25
2023-08-17T10:22:19.859Z,3.30
2023-08-17T10:29:38.886Z,3.85
2023-08-17T10:36:59.218Z,4.75
2023-08-17T10:44:18.391Z,4.15
2023-08-17T10:51:37.073Z,3.33
2023-08-17T10:58:56.944Z,3.95
2023-08-17T11:06:19.932Z,3.35
2023-08-17T11:13:39.583Z,3.63
2023-08-17T11:20:59.259Z,3.60
2023-08-17T11:28:17.814Z,3.47
2023-08-17T11:35:36.039Z,3.75
2023-08-17T11:42:55.780Z,3.15
2023-08-17T11:50:20.479Z,3.40
2023-08-17T11:57:39.785Z,3.38
2023-08-17T12:04:59.482Z,3.90
2023-08-17T12:12:20.281Z,4.45
2023-08-17T12:19:39.181Z,3.97
2023-08-17T12:27:00.849Z,3.65
2023-08-17T12:34:19.129Z,4.00
2023-08-17T12:41:37.328Z,3.80
2023-08-17T12:48:57.045Z,4.25
2023-08-17T12:56:15.234Z,5.15
2023-08-17T13:03:33.388Z,4.88
2023-08-17T13:10:52.905Z,5.65
2023-08-17T13:18:11.356Z,4.53
2023-08-17T13:25:29.581Z,4.97
2023-08-17T13:32:49.543Z,4.45
2023-08-17T13:40:08.836Z,4.60
2023-08-17T13:47:27.193Z,4.60
2023-08-17T13:54:47.539Z,4.68
2023-08-17T14:02:05.999Z,5.13
2023-08-17T14:09:25.036Z,4.95
2023-08-17T14:16:44.819Z,4.90
2023-08-17T14:24:03.255Z,5.20
2023-08-17T14:31:21.594Z,5.05
2023-08-17T14:38:41.125Z,4.90
2023-08-17T14:45:59.735Z,4.68
2023-08-17T14:53:18.024Z,5.00
2023-08-17T15:00:37.718Z,4.38
2023-08-17T15:07:55.942Z,2.38
2023-08-17T15:15:14.238Z,2.60
2023-08-17T15:22:33.896Z,3.13
2023-08-17T15:29:52.087Z,3.55
2023-08-17T15:37:10.642Z,4.70
2023-08-17T15:44:31.275Z,5.47
2023-08-17T15:51:49.753Z,4.95
2023-08-17T15:59:07.997Z,5.40
2023-08-17T16:06:27.550Z,5.43
2023-08-17T16:13:47.165Z,5.35
2023-08-17T16:21:06.401Z,4.65
2023-08-17T16:28:26.644Z,5.30
2023-08-17T16:35:45.186Z,4.07
2023-08-17T16:43:03.549Z,4.25
2023-08-17T16:50:23.291Z,4.47
2023-08-17T16:57:41.438Z,4.60
2023-08-17T17:04:59.656Z,4.75
2023-08-17T17:12:19.263Z,6.15
2023-08-17T17:19:37.522Z,5.55
2023-08-17T17:26:55.692Z,5.30
2023-08-17T17:34:15.430Z,5.20
2023-08-17T17:41:33.670Z,5.65
2023-08-17T17:48:52.055Z,5.45
2023-08-17T17:56:13.976Z,6.60
2023-08-17T18:03:32.477Z,5.93
2023-08-17T18:10:51.173Z,6.00
2023-08-17T18:18:11.357Z,5.68
2023-08-17T18:25:31.023Z,7.10
2023-08-17T18:32:49.477Z,5.93
2023-08-17T18:40:10.971Z,5.28
2023-08-17T18:47:29.952Z,5.95
2023-08-17T18:55:01.719Z,6.13
2023-08-17T19:02:23.205Z,5.93
2023-08-17T19:09:41.660Z,7.93
2023-08-17T19:17:00.377Z,9.02
2023-08-17T19:24:20.289Z,9.63
2023-08-17T19:31:38.747Z,7.53
2023-08-17T19:38:57.054Z,7.30
2023-08-17T19:46:16.963Z,15.38
2023-08-17T19:53:35.092Z,7.07
2023-08-17T20:00:53.416Z,7.60
2023-08-17T20:08:13.460Z,7.30
2023-08-17T20:15:31.855Z,6.45
2023-08-17T20:22:50.091Z,7.00
2023-08-17T20:30:10.927Z,7.80
2023-08-17T20:37:29.282Z,7.32
2023-08-17T20:44:48.293Z,8.57
2023-08-17T20:52:08.979Z,8.55
2023-08-17T20:59:27.336Z,10.75
2023-08-17T21:06:45.529Z,12.60
2023-08-17T21:14:05.506Z,8.98
2023-08-17T21:21:23.780Z,8.32
2023-08-17T21:28:41.922Z,7.75
2023-08-17T21:36:01.926Z,7.22
2023-08-17T21:43:20.137Z,7.00
2023-08-17T21:50:39.279Z,6.75
2023-08-17T21:57:59.367Z,7.53
2023-08-17T22:05:17.935Z,8.85
2023-08-17T22:12:36.087Z,8.55
2023-08-17T22:19:55.594Z,6.80
2023-08-17T22:27:13.789Z,8.30
2023-08-17T22:34:32.073Z,10.07
2023-08-17T22:41:51.907Z,9.65
2023-08-17T22:49:10.647Z,8.63
2023-08-17T22:56:28.817Z,10.30
2023-08-17T23:03:48.310Z,8.57
2023-08-17T23:11:06.674Z,7.90
2023-08-17T23:18:24.838Z,7.82
2023-08-17T23:25:45.716Z,8.93
2023-08-17T23:33:04.215Z,8.73
2023-08-17T23:40:22.438Z,9.88
2023-08-17T23:47:42.198Z,7.93
2023-08-17T23:55:00.429Z,8.23
